sensor_id;sensor_type;location;lat;lon;timestamp;P1;durP1;ratioP1;P2;durP2;ratioP2
10491;SDS011;5293;51.464;-2.566;2024-01-15T00:02:19;1.53;;;1.20;;
10491;SDS011;5293;51.464;-2.566;2024-01-15T00:04:44;1.80;;;1.00;;
10491;SDS011;5293;51.464;-2.566;2024-01-15T00:07:10;2.00;;;0.97;;
10491;SDS011;5293;51.464;-2.566;2024-01-15T00:09:35;1.90;;;0.97;;
10491;SDS011;5293;51.464;-2.566;2024-01-15T00:12:01;2.83;;;0.90;;
10491;SDS011;5293;51.464;-2.566;2024-01-15T00:14:27;2.07;;;1.20;;
10491;SDS011;5293;51.464;-2.566;2024-01-15T00:16:53;2.30;;;0.90;;
10491;SDS011;5293;51.464;-2.566;2024-01-15T00:19:23;0.90;;;0.90;;
10491;SDS011;5293;51.464;-2.566;2024-01-15T00:21:49;0.77;;;0.77;;
10491;SDS011;5293;51.464;-2.566;2024-01-15T00:24:15;1.10;;;0.97;;
10491;SDS011;5293;51.464;-2.566;2024-01-15T00:26:40;4.70;;;1.27;;
10491;SDS011;5293;51.464;-2.566;2024-01-15T00:29:07;1.13;;;1.13;;
10491;SDS011;5293;51.464;-2.566;2024-01-15T00:31:33;3.90;;;0.80;;
10491;SDS011;5293;51.464;-2.566;2024-01-15T00:33:58;0.73;;;0.70;;
10491;SDS011;5293;51.464;-2.566;2024-01-15T00:36:24;1.40;;;0.97;;
10491;SDS011;5293;51.464;-2.566;2024-01-15T00:38:50;3.53;;;1.40;;
10491;SDS011;5293;51.464;-2.566;2024-01-15T00:41:16;2.43;;;1.43;;
10491;SDS011;5293;51.464;-2.566;2024-01-15T00:43:43;1.73;;;1.40;;
10491;SDS011;5293;51.464;-2.566;2024-01-15T00:46:14;2.47;;;1.20;;
10491;SDS011;5293;51.464;-2.566;2024-01-15T00:48:40;3.43;;;1.30;;
10491;SDS011;5293;51.464;-2.566;2024-01-15T00:51:05;3.33;;;0.87;;
10491;SDS011;5293;51.464;-2.566;2024-01-15T00:53:31;4.67;;;1.17;;
10491;SDS011;5293;51.464;-2.566;2024-01-15T00:55:57;1.57;;;1.07;;
10491;SDS011;5293;51.464;-2.566;2024-01-15T00:58:22;3.10;;;1.20;;
10491;SDS011;5293;51.464;-2.566;2024-01-15T01:00:48;2.37;;;0.80;;
10491;SDS011;5293;51.464;-2.566;2024-01-15T01:03:14;1.93;;;1.20;;
10491;SDS011;5293;51.464;-2.566;2024-01-15T01:05:39;4.07;;;0.90;;
10491;SDS011;5293;51.464;-2.566;2024-01-15T01:08:05;2.90;;;1.10;;
10491;SDS011;5293;51.464;-2.566;2024-01-15T01:10:31;1.43;;;1.20;;
10491;SDS011;5293;51.464;-2.566;2024-01-15T01:12:56;1.23;;;1.13;;
10491;SDS011;5293;51.464;-2.566;2024-01-15T01:15:22;2.57;;;1.00;;
10491;SDS011;5293;51.464;-2.566;2024-01-15T01:17:47;1.13;;;1.10;;
10491;SDS011;5293;51.464;-2.566;2024-01-15T01:20:13;2.20;;;0.73;;
10491;SDS011;5293;51.464;-2.566;2024-01-15T01:22:40;0.90;;;0.80;;
10491;SDS011;5293;51.464;-2.566;2024-01-15T01:25:06;2.13;;;0.90;;
10491;SDS011;5293;51.464;-2.566;2024-01-15T01:27:32;0.90;;;0.73;;
10491;SDS011;5293;51.464;-2.566;2024-01-15T01:29:58;1.00;;;0.70;;
10491;SDS011;5293;51.464;-2.566;2024-01-15T01:32:24;1.10;;;0.80;;
10491;SDS011;5293;51.464;-2.566;2024-01-15T01:34:50;1.43;;;0.73;;
10491;SDS011;5293;51.464;-2.566;2024-01-15T01:37:15;1.73;;;0.80;;
10491;SDS011;5293;51.464;-2.566;2024-01-15T01:39:41;0.93;;;0.70;;
10491;SDS011;5293;51.464;-2.566;2024-01-15T01:42:08;1.10;;;0.60;;
10491;SDS011;5293;51.464;-2.566;2024-01-15T01:44:33;1.40;;;0.67;;
10491;SDS011;5293;51.464;-2.566;2024-01-15T01:46:59;1.77;;;0.80;;
10491;SDS011;5293;51.464;-2.566;2024-01-15T01:49:26;1.60;;;0.63;;
10491;SDS011;5293;51.464;-2.566;2024-01-15T01:51:53;1.60;;;0.60;;
10491;SDS011;5293;51.464;-2.566;2024-01-15T01:54:24;1.30;;;0.73;;
10491;SDS011;5293;51.464;-2.566;2024-01-15T01:56:52;1.63;;;0.63;;
10491;SDS011;5293;51.464;-2.566;2024-01-15T01:59:18;4.57;;;1.10;;
10491;SDS011;5293;51.464;-2.566;2024-01-15T02:01:44;2.70;;;0.90;;
10491;SDS011;5293;51.464;-2.566;2024-01-15T02:04:10;2.30;;;0.80;;
10491;SDS011;5293;51.464;-2.566;2024-01-15T02:06:36;1.97;;;0.80;;
10491;SDS011;5293;51.464;-2.566;2024-01-15T02:09:03;1.60;;;0.80;;
10491;SDS011;5293;51.464;-2.566;2024-01-15T02:11:30;2.10;;;0.70;;
10491;SDS011;5293;51.464;-2.566;2024-01-15T02:13:56;0.87;;;0.67;;
10491;SDS011;5293;51.464;-2.566;2024-01-15T02:16:22;5.40;;;0.90;;
10491;SDS011;5293;51.464;-2.566;2024-01-15T02:18:48;2.97;;;1.00;;
10491;SDS011;5293;51.464;-2.566;2024-01-15T02:21:13;0.93;;;0.90;;
10491;SDS011;5293;51.464;-2.566;2024-01-15T02:23:39;4.03;;;0.80;;
10491;SDS011;5293;51.464;-2.566;2024-01-15T02:26:05;3.43;;;0.90;;
10491;SDS011;5293;51.464;-2.566;2024-01-15T02:28:31;1.13;;;1.13;;
10491;SDS011;5293;51.464;-2.566;2024-01-15T02:30:58;1.97;;;1.20;;
10491;SDS011;5293;51.464;-2.566;2024-01-15T02:33:23;1.80;;;1.27;;
10491;SDS011;5293;51.464;-2.566;2024-01-15T02:35:49;2.70;;;1.47;;
10491;SDS011;5293;51.464;-2.566;2024-01-15T02:38:15;1.43;;;1.20;;
10491;SDS011;5293;51.464;-2.566;2024-01-15T02:40:41;2.40;;;1.17;;
10491;SDS011;5293;51.464;-2.566;2024-01-15T02:43:07;3.47;;;1.60;;
10491;SDS011;5293;51.464;-2.566;2024-01-15T02:45:33;3.13;;;1.17;;
10491;SDS011;5293;51.464;-2.566;2024-01-15T02:47:59;5.17;;;1.57;;
10491;SDS011;5293;51.464;-2.566;2024-01-15T02:50:25;3.03;;;1.43;;
10491;SDS011;5293;51.464;-2.566;2024-01-15T02:52:50;3.17;;;1.60;;
10491;SDS011;5293;51.464;-2.566;2024-01-15T02:55:16;2.23;;;1.47;;
10491;SDS011;5293;51.464;-2.566;2024-01-15T02:57:42;3.73;;;1.40;;
10491;SDS011;5293;51.464;-2.566;2024-01-15T03:00:08;3.30;;;1.50;;
10491;SDS011;5293;51.464;-2.566;2024-01-15T03:02:37;5.50;;;1.30;;
10491;SDS011;5293;51.464;-2.566;2024-01-15T03:05:08;1.67;;;1.10;;
10491;SDS011;5293;51.464;-2.566;2024-01-15T03:07:34;1.67;;;1.00;;
10491;SDS011;5293;51.464;-2.566;2024-01-15T03:10:01;1.30;;;1.13;;
10491;SDS011;5293;51.464;-2.566;2024-01-15T03:12:26;1.50;;;1.17;;
10491;SDS011;5293;51.464;-2.566;2024-01-15T03:14:52;1.47;;;1.10;;
10491;SDS011;5293;51.464;-2.566;2024-01-15T03:17:18;1.20;;;1.10;;
10491;SDS011;5293;51.464;-2.566;2024-01-15T03:19:44;1.87;;;1.40;;
10491;SDS011;5293;51.464;-2.566;2024-01-15T03:22:10;1.63;;;1.10;;
10491;SDS011;5293;51.464;-2.566;2024-01-15T03:24:35;2.00;;;1.30;;
10491;SDS011;5293;51.464;-2.566;2024-01-15T03:27:01;2.17;;;1.20;;
10491;SDS011;5293;51.464;-2.566;2024-01-15T03:29:27;2.37;;;1.30;;
10491;SDS011;5293;51.464;-2.566;2024-01-15T03:31:53;2.97;;;1.27;;
10491;SDS011;5293;51.464;-2.566;2024-01-15T03:34:19;2.53;;;1.07;;
10491;SDS011;5293;51.464;-2.566;2024-01-15T03:36:44;2.10;;;1.30;;
10491;SDS011;5293;51.464;-2.566;2024-01-15T03:39:10;1.43;;;1.30;;
10491;SDS011;5293;51.464;-2.566;2024-01-15T03:41:35;1.47;;;1.30;;
10491;SDS011;5293;51.464;-2.566;2024-01-15T03:44:01;3.53;;;1.30;;
10491;SDS011;5293;51.464;-2.566;2024-01-15T03:46:27;2.63;;;1.30;;
10491;SDS011;5293;51.464;-2.566;2024-01-15T03:48:53;3.10;;;1.57;;
10491;SDS011;5293;51.464;-2.566;2024-01-15T03:51:19;2.70;;;1.20;;
10491;SDS011;5293;51.464;-2.566;2024-01-15T03:53:45;2.33;;;1.60;;
10491;SDS011;5293;51.464;-2.566;2024-01-15T03:56:10;2.03;;;1.37;;
10491;SDS011;5293;51.464;-2.566;2024-01-15T03:58:36;2.30;;;1.20;;
10491;SDS011;5293;51.464;-2.566;2024-01-15T04:01:02;2.23;;;1.20;;
10491;SDS011;5293;51.464;-2.566;2024-01-15T04:03:28;2.37;;;1.20;;
10491;SDS011;5293;51.464;-2.566;2024-01-15T04:05:53;2.03;;;1.07;;
10491;SDS011;5293;51.464;-2.566;2024-01-15T04:08:19;1.27;;;1.10;;
10491;SDS011;5293;51.464;-2.566;2024-01-15T04:10:45;1.40;;;1.13;;
10491;SDS011;5293;51.464;-2.566;2024-01-15T04:13:10;3.97;;;0.90;;
10491;SDS011;5293;51.464;-2.566;2024-01-15T04:15:36;0.90;;;0.90;;
10491;SDS011;5293;51.464;-2.566;2024-01-15T04:18:02;1.80;;;1.03;;
10491;SDS011;5293;51.464;-2.566;2024-01-15T04:20:28;5.23;;;0.90;;
10491;SDS011;5293;51.464;-2.566;2024-01-15T04:22:54;2.93;;;0.90;;
10491;SDS011;5293;51.464;-2.566;2024-01-15T04:25:20;2.30;;;1.00;;
10491;SDS011;5293;51.464;-2.566;2024-01-15T04:27:45;2.30;;;0.87;;
10491;SDS011;5293;51.464;-2.566;2024-01-15T04:30:11;1.27;;;0.80;;
10491;SDS011;5293;51.464;-2.566;2024-01-15T04:32:37;4.00;;;0.80;;
10491;SDS011;5293;51.464;-2.566;2024-01-15T04:35:03;1.17;;;0.70;;
10491;SDS011;5293;51.464;-2.566;2024-01-15T04:37:29;1.43;;;0.80;;
10491;SDS011;5293;51.464;-2.566;2024-01-15T04:39:54;2.10;;;1.13;;
10491;SDS011;5293;51.464;-2.566;2024-01-15T04:42:23;2.73;;;1.00;;
10491;SDS011;5293;51.464;-2.566;2024-01-15T04:44:49;1.07;;;0.90;;
10491;SDS011;5293;51.464;-2.566;2024-01-15T04:47:15;0.97;;;0.80;;
10491;SDS011;5293;51.464;-2.566;2024-01-15T04:49:41;2.43;;;1.03;;
10491;SDS011;5293;51.464;-2.566;2024-01-15T04:52:07;1.53;;;0.83;;
10491;SDS011;5293;51.464;-2.566;2024-01-15T04:54:35;1.50;;;0.80;;
10491;SDS011;5293;51.464;-2.566;2024-01-15T04:57:01;2.63;;;0.73;;
10491;SDS011;5293;51.464;-2.566;2024-01-15T04:59:27;0.80;;;0.73;;
10491;SDS011;5293;51.464;-2.566;2024-01-15T05:01:53;1.80;;;0.90;;
10491;SDS011;5293;51.464;-2.566;2024-01-15T05:04:19;0.60;;;0.40;;
10491;SDS011;5293;51.464;-2.566;2024-01-15T05:06:45;2.63;;;1.00;;
10491;SDS011;5293;51.464;-2.566;2024-01-15T05:09:11;1.00;;;0.80;;
10491;SDS011;5293;51.464;-2.566;2024-01-15T05:11:38;1.07;;;0.70;;
10491;SDS011;5293;51.464;-2.566;2024-01-15T05:14:04;5.70;;;0.70;;
10491;SDS011;5293;51.464;-2.566;2024-01-15T05:16:29;3.10;;;0.60;;
10491;SDS011;5293;51.464;-2.566;2024-01-15T05:18:55;3.60;;;1.00;;
10491;SDS011;5293;51.464;-2.566;2024-01-15T05:21:21;2.67;;;0.80;;
10491;SDS011;5293;51.464;-2.566;2024-01-15T05:23:47;2.50;;;0.80;;
10491;SDS011;5293;51.464;-2.566;2024-01-15T05:26:12;1.67;;;0.80;;
10491;SDS011;5293;51.464;-2.566;2024-01-15T05:28:38;4.07;;;0.90;;
10491;SDS011;5293;51.464;-2.566;2024-01-15T05:31:05;1.80;;;0.90;;
10491;SDS011;5293;51.464;-2.566;2024-01-15T05:33:31;1.00;;;0.73;;
10491;SDS011;5293;51.464;-2.566;2024-01-15T05:35:57;1.30;;;0.80;;
10491;SDS011;5293;51.464;-2.566;2024-01-15T05:38:24;3.13;;;0.80;;
10491;SDS011;5293;51.464;-2.566;2024-01-15T05:40:49;2.73;;;0.87;;
10491;SDS011;5293;51.464;-2.566;2024-01-15T05:43:15;0.70;;;0.60;;
10491;SDS011;5293;51.464;-2.566;2024-01-15T05:45:42;0.80;;;0.80;;
10491;SDS011;5293;51.464;-2.566;2024-01-15T05:48:09;3.67;;;0.93;;
10491;SDS011;5293;51.464;-2.566;2024-01-15T05:50:34;0.70;;;0.70;;
10491;SDS011;5293;51.464;-2.566;2024-01-15T05:53:00;2.37;;;1.10;;
10491;SDS011;5293;51.464;-2.566;2024-01-15T05:55:27;4.03;;;0.93;;
10491;SDS011;5293;51.464;-2.566;2024-01-15T05:57:53;3.43;;;1.17;;
10491;SDS011;5293;51.464;-2.566;2024-01-15T06:00:18;3.90;;;1.40;;
10491;SDS011;5293;51.464;-2.566;2024-01-15T06:02:44;4.70;;;1.20;;
10491;SDS011;5293;51.464;-2.566;2024-01-15T06:05:10;2.13;;;0.80;;
10491;SDS011;5293;51.464;-2.566;2024-01-15T06:07:35;4.97;;;1.13;;
10491;SDS011;5293;51.464;-2.566;2024-01-15T06:10:01;1.00;;;1.00;;
10491;SDS011;5293;51.464;-2.566;2024-01-15T06:12:28;2.07;;;1.13;;
10491;SDS011;5293;51.464;-2.566;2024-01-15T06:14:54;3.93;;;1.10;;
10491;SDS011;5293;51.464;-2.566;2024-01-15T06:17:19;1.33;;;0.83;;
10491;SDS011;5293;51.464;-2.566;2024-01-15T06:19:45;1.57;;;0.87;;
10491;SDS011;5293;51.464;-2.566;2024-01-15T06:22:11;2.43;;;1.03;;
10491;SDS011;5293;51.464;-2.566;2024-01-15T06:24:36;1.67;;;1.10;;
10491;SDS011;5293;51.464;-2.566;2024-01-15T06:27:02;2.17;;;0.80;;
10491;SDS011;5293;51.464;-2.566;2024-01-15T06:29:28;4.23;;;1.17;;
10491;SDS011;5293;51.464;-2.566;2024-01-15T06:31:53;2.43;;;1.00;;
10491;SDS011;5293;51.464;-2.566;2024-01-15T06:34:19;6.23;;;1.07;;
10491;SDS011;5293;51.464;-2.566;2024-01-15T06:36:44;1.07;;;1.00;;
10491;SDS011;5293;51.464;-2.566;2024-01-15T06:39:10;4.13;;;1.20;;
10491;SDS011;5293;51.464;-2.566;2024-01-15T06:41:36;3.50;;;1.50;;
10491;SDS011;5293;51.464;-2.566;2024-01-15T06:44:09;5.30;;;1.57;;
10491;SDS011;5293;51.464;-2.566;2024-01-15T06:46:44;4.10;;;1.40;;
10491;SDS011;5293;51.464;-2.566;2024-01-15T06:49:10;2.00;;;1.20;;
10491;SDS011;5293;51.464;-2.566;2024-01-15T06:51:36;2.93;;;1.20;;
10491;SDS011;5293;51.464;-2.566;2024-01-15T06:54:02;3.23;;;1.33;;
10491;SDS011;5293;51.464;-2.566;2024-01-15T06:56:27;1.00;;;1.00;;
10491;SDS011;5293;51.464;-2.566;2024-01-15T06:58:53;1.23;;;1.13;;
10491;SDS011;5293;51.464;-2.566;2024-01-15T07:01:19;3.93;;;1.07;;
10491;SDS011;5293;51.464;-2.566;2024-01-15T07:03:45;1.90;;;1.00;;
10491;SDS011;5293;51.464;-2.566;2024-01-15T07:06:11;1.63;;;1.37;;
10491;SDS011;5293;51.464;-2.566;2024-01-15T07:08:37;3.70;;;1.17;;
10491;SDS011;5293;51.464;-2.566;2024-01-15T07:11:04;2.60;;;1.13;;
10491;SDS011;5293;51.464;-2.566;2024-01-15T07:13:30;5.20;;;1.37;;
10491;SDS011;5293;51.464;-2.566;2024-01-15T07:15:56;1.37;;;1.17;;
10491;SDS011;5293;51.464;-2.566;2024-01-15T07:18:21;2.80;;;1.00;;
10491;SDS011;5293;51.464;-2.566;2024-01-15T07:20:48;2.10;;;1.50;;
10491;SDS011;5293;51.464;-2.566;2024-01-15T07:23:14;1.43;;;1.27;;
10491;SDS011;5293;51.464;-2.566;2024-01-15T07:25:40;3.27;;;1.30;;
10491;SDS011;5293;51.464;-2.566;2024-01-15T07:28:05;5.17;;;1.37;;
10491;SDS011;5293;51.464;-2.566;2024-01-15T07:30:31;2.30;;;1.40;;
10491;SDS011;5293;51.464;-2.566;2024-01-15T07:32:57;1.50;;;1.30;;
10491;SDS011;5293;51.464;-2.566;2024-01-15T07:35:22;5.33;;;1.60;;
10491;SDS011;5293;51.464;-2.566;2024-01-15T07:37:48;3.80;;;1.70;;
10491;SDS011;5293;51.464;-2.566;2024-01-15T07:40:14;7.53;;;2.10;;
10491;SDS011;5293;51.464;-2.566;2024-01-15T07:42:40;2.73;;;2.00;;
10491;SDS011;5293;51.464;-2.566;2024-01-15T07:45:07;3.53;;;2.10;;
10491;SDS011;5293;51.464;-2.566;2024-01-15T07:47:34;4.10;;;2.27;;
10491;SDS011;5293;51.464;-2.566;2024-01-15T07:49:59;5.07;;;2.30;;
10491;SDS011;5293;51.464;-2.566;2024-01-15T07:52:25;2.77;;;1.97;;
10491;SDS011;5293;51.464;-2.566;2024-01-15T07:54:51;4.60;;;1.90;;
10491;SDS011;5293;51.464;-2.566;2024-01-15T07:57:16;3.10;;;2.30;;
10491;SDS011;5293;51.464;-2.566;2024-01-15T07:59:42;3.77;;;1.70;;
10491;SDS011;5293;51.464;-2.566;2024-01-15T08:02:08;3.83;;;1.90;;
10491;SDS011;5293;51.464;-2.566;2024-01-15T08:04:33;4.10;;;2.50;;
10491;SDS011;5293;51.464;-2.566;2024-01-15T08:06:59;7.40;;;2.17;;
10491;SDS011;5293;51.464;-2.566;2024-01-15T08:09:25;4.77;;;1.90;;
10491;SDS011;5293;51.464;-2.566;2024-01-15T08:11:50;5.90;;;2.77;;
10491;SDS011;5293;51.464;-2.566;2024-01-15T08:14:17;7.13;;;3.20;;
10491;SDS011;5293;51.464;-2.566;2024-01-15T08:16:43;6.80;;;2.53;;
10491;SDS011;5293;51.464;-2.566;2024-01-15T08:19:10;5.37;;;1.93;;
10491;SDS011;5293;51.464;-2.566;2024-01-15T08:21:35;3.40;;;1.77;;
10491;SDS011;5293;51.464;-2.566;2024-01-15T08:24:01;4.63;;;1.77;;
10491;SDS011;5293;51.464;-2.566;2024-01-15T08:26:30;7.30;;;2.00;;
10491;SDS011;5293;51.464;-2.566;2024-01-15T08:28:57;6.23;;;2.10;;
10491;SDS011;5293;51.464;-2.566;2024-01-15T08:31:23;9.27;;;2.30;;
10491;SDS011;5293;51.464;-2.566;2024-01-15T08:33:48;3.07;;;1.97;;
10491;SDS011;5293;51.464;-2.566;2024-01-15T08:36:14;6.90;;;2.87;;
10491;SDS011;5293;51.464;-2.566;2024-01-15T08:38:40;3.87;;;1.80;;
10491;SDS011;5293;51.464;-2.566;2024-01-15T08:41:05;2.97;;;1.80;;
10491;SDS011;5293;51.464;-2.566;2024-01-15T08:43:33;5.37;;;1.80;;
10491;SDS011;5293;51.464;-2.566;2024-01-15T08:45:59;5.80;;;2.00;;
10491;SDS011;5293;51.464;-2.566;2024-01-15T08:48:25;2.80;;;1.53;;
10491;SDS011;5293;51.464;-2.566;2024-01-15T08:50:54;4.50;;;1.53;;
10491;SDS011;5293;51.464;-2.566;2024-01-15T08:53:20;4.30;;;1.57;;
10491;SDS011;5293;51.464;-2.566;2024-01-15T08:55:46;2.77;;;1.37;;
10491;SDS011;5293;51.464;-2.566;2024-01-15T08:58:12;5.53;;;2.27;;
10491;SDS011;5293;51.464;-2.566;2024-01-15T09:00:38;8.37;;;2.03;;
10491;SDS011;5293;51.464;-2.566;2024-01-15T09:03:04;2.50;;;1.83;;
10491;SDS011;5293;51.464;-2.566;2024-01-15T09:05:29;6.10;;;1.57;;
10491;SDS011;5293;51.464;-2.566;2024-01-15T09:07:55;3.17;;;1.50;;
10491;SDS011;5293;51.464;-2.566;2024-01-15T09:10:21;6.07;;;2.00;;
10491;SDS011;5293;51.464;-2.566;2024-01-15T09:12:47;5.00;;;1.80;;
10491;SDS011;5293;51.464;-2.566;2024-01-15T09:15:14;9.63;;;1.60;;
10491;SDS011;5293;51.464;-2.566;2024-01-15T09:17:40;6.70;;;1.73;;
10491;SDS011;5293;51.464;-2.566;2024-01-15T09:20:05;3.40;;;1.63;;
10491;SDS011;5293;51.464;-2.566;2024-01-15T09:22:33;4.43;;;1.63;;
10491;SDS011;5293;51.464;-2.566;2024-01-15T09:24:59;1.33;;;1.20;;
10491;SDS011;5293;51.464;-2.566;2024-01-15T09:27:25;1.90;;;1.50;;
10491;SDS011;5293;51.464;-2.566;2024-01-15T09:29:53;2.97;;;1.57;;
10491;SDS011;5293;51.464;-2.566;2024-01-15T09:32:19;3.88;;;1.75;;
10491;SDS011;5293;51.464;-2.566;2024-01-15T09:34:48;4.87;;;1.60;;
10491;SDS011;5293;51.464;-2.566;2024-01-15T09:37:14;6.60;;;1.83;;
10491;SDS011;5293;51.464;-2.566;2024-01-15T09:39:40;3.63;;;1.70;;
10491;SDS011;5293;51.464;-2.566;2024-01-15T09:42:06;3.05;;;1.63;;
10491;SDS011;5293;51.464;-2.566;2024-01-15T09:44:33;3.03;;;1.27;;
10491;SDS011;5293;51.464;-2.566;2024-01-15T09:46:59;4.77;;;1.50;;
10491;SDS011;5293;51.464;-2.566;2024-01-15T09:49:25;1.93;;;1.10;;
10491;SDS011;5293;51.464;-2.566;2024-01-15T09:51:50;9.23;;;1.70;;
10491;SDS011;5293;51.464;-2.566;2024-01-15T09:54:16;4.10;;;1.30;;
10491;SDS011;5293;51.464;-2.566;2024-01-15T09:56:45;3.37;;;1.27;;
10491;SDS011;5293;51.464;-2.566;2024-01-15T09:59:14;1.23;;;1.07;;
10491;SDS011;5293;51.464;-2.566;2024-01-15T10:01:43;4.23;;;1.00;;
10491;SDS011;5293;51.464;-2.566;2024-01-15T10:04:13;1.17;;;0.90;;
10491;SDS011;5293;51.464;-2.566;2024-01-15T10:06:39;5.63;;;0.97;;
10491;SDS011;5293;51.464;-2.566;2024-01-15T10:09:10;3.63;;;1.20;;
10491;SDS011;5293;51.464;-2.566;2024-01-15T10:11:39;4.27;;;1.40;;
10491;SDS011;5293;51.464;-2.566;2024-01-15T10:14:06;2.23;;;1.00;;
10491;SDS011;5293;51.464;-2.566;2024-01-15T10:16:33;2.43;;;1.00;;
10491;SDS011;5293;51.464;-2.566;2024-01-15T10:18:59;2.30;;;0.80;;
10491;SDS011;5293;51.464;-2.566;2024-01-15T10:21:24;2.07;;;1.00;;
10491;SDS011;5293;51.464;-2.566;2024-01-15T10:23:51;0.70;;;0.70;;
10491;SDS011;5293;51.464;-2.566;2024-01-15T10:26:17;1.47;;;0.83;;
10491;SDS011;5293;51.464;-2.566;2024-01-15T10:28:43;1.00;;;0.87;;
10491;SDS011;5293;51.464;-2.566;2024-01-15T10:31:08;13.13;;;2.30;;
10491;SDS011;5293;51.464;-2.566;2024-01-15T10:33:35;6.97;;;1.20;;
10491;SDS011;5293;51.464;-2.566;2024-01-15T10:36:00;1.80;;;1.30;;
10491;SDS011;5293;51.464;-2.566;2024-01-15T10:38:26;2.87;;;1.40;;
10491;SDS011;5293;51.464;-2.566;2024-01-15T10:40:52;3.07;;;1.10;;
10491;SDS011;5293;51.464;-2.566;2024-01-15T10:43:19;2.77;;;1.27;;
10491;SDS011;5293;51.464;-2.566;2024-01-15T10:45:46;2.63;;;1.00;;
10491;SDS011;5293;51.464;-2.566;2024-01-15T10:48:13;2.00;;;1.00;;
10491;SDS011;5293;51.464;-2.566;2024-01-15T10:50:41;3.53;;;1.13;;
10491;SDS011;5293;51.464;-2.566;2024-01-15T10:53:07;1.73;;;0.90;;
10491;SDS011;5293;51.464;-2.566;2024-01-15T10:55:35;3.63;;;0.80;;
10491;SDS011;5293;51.464;-2.566;2024-01-15T10:58:02;3.93;;;1.07;;
10491;SDS011;5293;51.464;-2.566;2024-01-15T11:00:32;5.63;;;1.63;;
10491;SDS011;5293;51.464;-2.566;2024-01-15T11:03:00;2.73;;;1.03;;
10491;SDS011;5293;51.464;-2.566;2024-01-15T11:05:27;1.03;;;0.87;;
10491;SDS011;5293;51.464;-2.566;2024-01-15T11:07:56;1.60;;;0.70;;
10491;SDS011;5293;51.464;-2.566;2024-01-15T11:10:37;5.30;;;1.30;;
10491;SDS011;5293;51.464;-2.566;2024-01-15T11:13:05;2.73;;;0.80;;
10491;SDS011;5293;51.464;-2.566;2024-01-15T11:15:33;1.50;;;1.00;;
10491;SDS011;5293;51.464;-2.566;2024-01-15T11:18:22;4.03;;;1.10;;
10491;SDS011;5293;51.464;-2.566;2024-01-15T11:23:43;5.33;;;1.50;;
10491;SDS011;5293;51.464;-2.566;2024-01-15T11:34:21;1.70;;;0.70;;
10491;SDS011;5293;51.464;-2.566;2024-01-15T11:37:07;0.60;;;0.60;;
10491;SDS011;5293;51.464;-2.566;2024-01-15T11:41:59;0.93;;;0.83;;
10491;SDS011;5293;51.464;-2.566;2024-01-15T11:44:26;1.10;;;1.00;;
10491;SDS011;5293;51.464;-2.566;2024-01-15T11:52:18;1.47;;;0.80;;
10491;SDS011;5293;51.464;-2.566;2024-01-15T11:54:53;2.27;;;0.67;;
10491;SDS011;5293;51.464;-2.566;2024-01-15T11:57:33;1.42;;;0.82;;
10491;SDS011;5293;51.464;-2.566;2024-01-15T12:00:05;0.87;;;0.80;;
10491;SDS011;5293;51.464;-2.566;2024-01-15T12:02:31;1.97;;;0.73;;
10491;SDS011;5293;51.464;-2.566;2024-01-15T12:04:57;2.47;;;1.03;;
10491;SDS011;5293;51.464;-2.566;2024-01-15T12:07:23;3.87;;;1.27;;
10491;SDS011;5293;51.464;-2.566;2024-01-15T12:09:49;3.60;;;1.00;;
10491;SDS011;5293;51.464;-2.566;2024-01-15T12:12:17;4.13;;;1.00;;
10491;SDS011;5293;51.464;-2.566;2024-01-15T12:14:52;2.80;;;1.30;;
10491;SDS011;5293;51.464;-2.566;2024-01-15T12:17:18;2.43;;;1.40;;
10491;SDS011;5293;51.464;-2.566;2024-01-15T12:19:43;1.40;;;0.87;;
10491;SDS011;5293;51.464;-2.566;2024-01-15T12:22:09;3.90;;;1.30;;
10491;SDS011;5293;51.464;-2.566;2024-01-15T12:24:35;3.07;;;1.23;;
10491;SDS011;5293;51.464;-2.566;2024-01-15T12:27:01;1.33;;;1.10;;
10491;SDS011;5293;51.464;-2.566;2024-01-15T12:29:27;5.70;;;1.17;;
10491;SDS011;5293;51.464;-2.566;2024-01-15T12:31:53;6.07;;;1.10;;
10491;SDS011;5293;51.464;-2.566;2024-01-15T12:34:18;1.60;;;1.13;;
10491;SDS011;5293;51.464;-2.566;2024-01-15T12:36:46;1.93;;;1.17;;
10491;SDS011;5293;51.464;-2.566;2024-01-15T12:39:12;1.17;;;1.03;;
10491;SDS011;5293;51.464;-2.566;2024-01-15T12:41:38;2.27;;;0.90;;
10491;SDS011;5293;51.464;-2.566;2024-01-15T12:44:04;2.07;;;1.20;;
10491;SDS011;5293;51.464;-2.566;2024-01-15T12:46:30;4.17;;;1.50;;
10491;SDS011;5293;51.464;-2.566;2024-01-15T12:48:56;1.73;;;0.97;;
10491;SDS011;5293;51.464;-2.566;2024-01-15T12:51:25;4.00;;;1.10;;
10491;SDS011;5293;51.464;-2.566;2024-01-15T12:53:52;0.90;;;0.90;;
10491;SDS011;5293;51.464;-2.566;2024-01-15T12:56:18;2.50;;;1.07;;
10491;SDS011;5293;51.464;-2.566;2024-01-15T12:58:43;4.83;;;1.57;;
10491;SDS011;5293;51.464;-2.566;2024-01-15T13:01:09;1.43;;;1.00;;
10491;SDS011;5293;51.464;-2.566;2024-01-15T13:03:35;3.83;;;1.33;;
10491;SDS011;5293;51.464;-2.566;2024-01-15T13:06:01;4.47;;;0.90;;
10491;SDS011;5293;51.464;-2.566;2024-01-15T13:08:26;2.67;;;1.40;;
10491;SDS011;5293;51.464;-2.566;2024-01-15T13:10:54;6.60;;;1.37;;
10491;SDS011;5293;51.464;-2.566;2024-01-15T13:13:22;1.20;;;1.10;;
10491;SDS011;5293;51.464;-2.566;2024-01-15T13:15:47;2.97;;;1.13;;
10491;SDS011;5293;51.464;-2.566;2024-01-15T13:18:13;1.10;;;1.00;;
10491;SDS011;5293;51.464;-2.566;2024-01-15T13:20:39;1.57;;;0.90;;
10491;SDS011;5293;51.464;-2.566;2024-01-15T13:23:05;3.27;;;1.07;;
10491;SDS011;5293;51.464;-2.566;2024-01-15T13:25:30;3.57;;;1.33;;
10491;SDS011;5293;51.464;-2.566;2024-01-15T13:27:57;3.17;;;1.00;;
10491;SDS011;5293;51.464;-2.566;2024-01-15T13:30:23;2.77;;;1.17;;
10491;SDS011;5293;51.464;-2.566;2024-01-15T13:32:48;2.93;;;1.70;;
10491;SDS011;5293;51.464;-2.566;2024-01-15T13:35:14;4.33;;;1.40;;
10491;SDS011;5293;51.464;-2.566;2024-01-15T13:37:40;4.17;;;1.57;;
10491;SDS011;5293;51.464;-2.566;2024-01-15T13:40:06;1.13;;;0.90;;
10491;SDS011;5293;51.464;-2.566;2024-01-15T13:42:34;1.77;;;1.10;;
10491;SDS011;5293;51.464;-2.566;2024-01-15T13:45:03;2.43;;;1.03;;
10491;SDS011;5293;51.464;-2.566;2024-01-15T13:47:31;3.07;;;1.07;;
10491;SDS011;5293;51.464;-2.566;2024-01-15T13:49:57;1.30;;;1.07;;
10491;SDS011;5293;51.464;-2.566;2024-01-15T13:52:23;3.33;;;1.10;;
10491;SDS011;5293;51.464;-2.566;2024-01-15T13:54:49;1.93;;;0.97;;
10491;SDS011;5293;51.464;-2.566;2024-01-15T13:57:14;1.97;;;1.17;;
10491;SDS011;5293;51.464;-2.566;2024-01-15T13:59:40;2.43;;;1.20;;
10491;SDS011;5293;51.464;-2.566;2024-01-15T14:02:06;4.37;;;1.37;;
10491;SDS011;5293;51.464;-2.566;2024-01-15T14:04:32;2.10;;;1.17;;
10491;SDS011;5293;51.464;-2.566;2024-01-15T14:06:57;2.97;;;1.40;;
10491;SDS011;5293;51.464;-2.566;2024-01-15T14:09:23;0.97;;;0.97;;
10491;SDS011;5293;51.464;-2.566;2024-01-15T14:11:50;0.73;;;0.73;;
10491;SDS011;5293;51.464;-2.566;2024-01-15T14:14:16;1.93;;;1.33;;
10491;SDS011;5293;51.464;-2.566;2024-01-15T14:16:42;4.03;;;1.20;;
10491;SDS011;5293;51.464;-2.566;2024-01-15T14:19:07;2.27;;;0.87;;
10491;SDS011;5293;51.464;-2.566;2024-01-15T14:21:34;2.70;;;0.90;;
10491;SDS011;5293;51.464;-2.566;2024-01-15T14:24:00;2.40;;;1.07;;
10491;SDS011;5293;51.464;-2.566;2024-01-15T14:26:26;4.57;;;1.00;;
10491;SDS011;5293;51.464;-2.566;2024-01-15T14:28:53;3.53;;;1.17;;
10491;SDS011;5293;51.464;-2.566;2024-01-15T14:31:19;5.37;;;1.17;;
10491;SDS011;5293;51.464;-2.566;2024-01-15T14:33:45;2.33;;;1.10;;
10491;SDS011;5293;51.464;-2.566;2024-01-15T14:36:11;3.07;;;0.97;;
10491;SDS011;5293;51.464;-2.566;2024-01-15T14:38:37;2.37;;;1.10;;
10491;SDS011;5293;51.464;-2.566;2024-01-15T14:41:02;5.67;;;1.17;;
10491;SDS011;5293;51.464;-2.566;2024-01-15T14:43:29;5.10;;;1.13;;
10491;SDS011;5293;51.464;-2.566;2024-01-15T14:45:54;2.40;;;1.17;;
10491;SDS011;5293;51.464;-2.566;2024-01-15T14:48:20;3.53;;;1.13;;
10491;SDS011;5293;51.464;-2.566;2024-01-15T14:50:46;4.80;;;1.10;;
10491;SDS011;5293;51.464;-2.566;2024-01-15T14:53:11;1.43;;;0.90;;
10491;SDS011;5293;51.464;-2.566;2024-01-15T14:55:37;3.33;;;1.00;;
10491;SDS011;5293;51.464;-2.566;2024-01-15T14:58:03;1.80;;;1.30;;
10491;SDS011;5293;51.464;-2.566;2024-01-15T15:00:28;1.10;;;1.00;;
10491;SDS011;5293;51.464;-2.566;2024-01-15T15:02:54;3.90;;;1.00;;